TAF Text Data
IDs:
Format:
Raw Decoded Include METAR

Data at: 0553 UTC 07 Dec 2022

KLAL 070523Z 0706/0806 VRB03KT P6SM FEW025
  FM071000 VRB03KT 6SM BR FEW025
  FM071500 06006KT P6SM SCT050 SCT250
  FM080100 VRB03KT P6SM FEW025